sensor_id;sensor_type;location;lat;lon;timestamp;P1;durP1;ratioP1;P2;durP2;ratioP2
4186;SDS011;2107;52.306;10.484;2023-04-03T00:01:59;0.30;;;0.30;;
4186;SDS011;2107;52.306;10.484;2023-04-03T00:04:26;0.30;;;0.30;;
4186;SDS011;2107;52.306;10.484;2023-04-03T00:06:54;0.30;;;0.30;;
4186;SDS011;2107;52.306;10.484;2023-04-03T00:09:21;0.30;;;0.30;;
4186;SDS011;2107;52.306;10.484;2023-04-03T00:11:48;0.30;;;0.30;;
4186;SDS011;2107;52.306;10.484;2023-04-03T00:14:15;0.30;;;0.30;;
4186;SDS011;2107;52.306;10.484;2023-04-03T00:16:42;0.30;;;0.30;;
4186;SDS011;2107;52.306;10.484;2023-04-03T00:19:09;0.30;;;0.30;;
4186;SDS011;2107;52.306;10.484;2023-04-03T00:21:37;0.30;;;0.30;;
4186;SDS011;2107;52.306;10.484;2023-04-03T00:24:06;0.30;;;0.30;;
4186;SDS011;2107;52.306;10.484;2023-04-03T00:26:33;0.30;;;0.30;;
4186;SDS011;2107;52.306;10.484;2023-04-03T00:29:00;0.30;;;0.30;;
4186;SDS011;2107;52.306;10.484;2023-04-03T00:31:27;0.40;;;0.40;;
4186;SDS011;2107;52.306;10.484;2023-04-03T00:33:54;0.30;;;0.30;;
4186;SDS011;2107;52.306;10.484;2023-04-03T00:36:21;0.30;;;0.30;;
4186;SDS011;2107;52.306;10.484;2023-04-03T00:38:47;0.30;;;0.30;;
4186;SDS011;2107;52.306;10.484;2023-04-03T00:41:16;0.30;;;0.30;;
4186;SDS011;2107;52.306;10.484;2023-04-03T00:43:43;0.30;;;0.30;;
4186;SDS011;2107;52.306;10.484;2023-04-03T00:46:10;0.30;;;0.30;;
4186;SDS011;2107;52.306;10.484;2023-04-03T00:48:38;0.30;;;0.30;;
4186;SDS011;2107;52.306;10.484;2023-04-03T00:51:07;0.30;;;0.30;;
4186;SDS011;2107;52.306;10.484;2023-04-03T00:53:38;0.30;;;0.30;;
4186;SDS011;2107;52.306;10.484;2023-04-03T00:56:10;0.30;;;0.30;;
4186;SDS011;2107;52.306;10.484;2023-04-03T00:58:41;0.20;;;0.20;;
4186;SDS011;2107;52.306;10.484;2023-04-03T01:01:14;0.20;;;0.20;;
4186;SDS011;2107;52.306;10.484;2023-04-03T01:03:44;0.20;;;0.20;;
4186;SDS011;2107;52.306;10.484;2023-04-03T01:06:11;0.20;;;0.20;;
4186;SDS011;2107;52.306;10.484;2023-04-03T01:08:41;0.30;;;0.30;;
4186;SDS011;2107;52.306;10.484;2023-04-03T01:11:08;0.27;;;0.27;;
4186;SDS011;2107;52.306;10.484;2023-04-03T01:13:35;0.20;;;0.20;;
4186;SDS011;2107;52.306;10.484;2023-04-03T01:16:04;0.23;;;0.23;;
4186;SDS011;2107;52.306;10.484;2023-04-03T01:18:31;0.20;;;0.20;;
4186;SDS011;2107;52.306;10.484;2023-04-03T01:21:09;0.30;;;0.30;;
4186;SDS011;2107;52.306;10.484;2023-04-03T01:24:09;0.20;;;0.20;;
4186;SDS011;2107;52.306;10.484;2023-04-03T01:26:43;0.20;;;0.20;;
4186;SDS011;2107;52.306;10.484;2023-04-03T01:29:11;0.20;;;0.20;;
4186;SDS011;2107;52.306;10.484;2023-04-03T01:31:45;0.20;;;0.20;;
4186;SDS011;2107;52.306;10.484;2023-04-03T01:34:16;0.20;;;0.20;;
4186;SDS011;2107;52.306;10.484;2023-04-03T01:36:43;0.20;;;0.20;;
4186;SDS011;2107;52.306;10.484;2023-04-03T01:39:10;0.20;;;0.20;;
4186;SDS011;2107;52.306;10.484;2023-04-03T01:41:37;0.20;;;0.20;;
4186;SDS011;2107;52.306;10.484;2023-04-03T01:44:05;0.20;;;0.20;;
4186;SDS011;2107;52.306;10.484;2023-04-03T01:46:32;0.20;;;0.20;;
4186;SDS011;2107;52.306;10.484;2023-04-03T01:49:00;0.10;;;0.10;;
4186;SDS011;2107;52.306;10.484;2023-04-03T01:51:27;0.10;;;0.10;;
4186;SDS011;2107;52.306;10.484;2023-04-03T01:53:54;0.10;;;0.10;;
4186;SDS011;2107;52.306;10.484;2023-04-03T01:56:21;0.10;;;0.10;;
4186;SDS011;2107;52.306;10.484;2023-04-03T01:58:48;0.20;;;0.20;;
4186;SDS011;2107;52.306;10.484;2023-04-03T02:01:15;0.10;;;0.10;;
4186;SDS011;2107;52.306;10.484;2023-04-03T02:03:42;0.20;;;0.20;;
4186;SDS011;2107;52.306;10.484;2023-04-03T02:06:10;0.10;;;0.10;;
4186;SDS011;2107;52.306;10.484;2023-04-03T02:08:37;0.20;;;0.20;;
4186;SDS011;2107;52.306;10.484;2023-04-03T02:11:05;0.20;;;0.20;;
4186;SDS011;2107;52.306;10.484;2023-04-03T02:13:32;0.20;;;0.20;;
4186;SDS011;2107;52.306;10.484;2023-04-03T02:15:59;0.20;;;0.20;;
4186;SDS011;2107;52.306;10.484;2023-04-03T02:18:31;0.20;;;0.20;;
4186;SDS011;2107;52.306;10.484;2023-04-03T02:20:58;0.10;;;0.10;;
4186;SDS011;2107;52.306;10.484;2023-04-03T02:23:26;0.20;;;0.20;;
4186;SDS011;2107;52.306;10.484;2023-04-03T02:25:53;0.20;;;0.20;;
4186;SDS011;2107;52.306;10.484;2023-04-03T02:28:27;0.20;;;0.20;;
4186;SDS011;2107;52.306;10.484;2023-04-03T02:30:54;0.10;;;0.10;;
4186;SDS011;2107;52.306;10.484;2023-04-03T02:33:21;0.20;;;0.20;;
4186;SDS011;2107;52.306;10.484;2023-04-03T02:35:51;0.20;;;0.20;;
4186;SDS011;2107;52.306;10.484;2023-04-03T02:38:19;0.20;;;0.20;;
4186;SDS011;2107;52.306;10.484;2023-04-03T02:40:47;0.17;;;0.17;;
4186;SDS011;2107;52.306;10.484;2023-04-03T02:43:15;0.20;;;0.20;;
4186;SDS011;2107;52.306;10.484;2023-04-03T02:45:41;0.20;;;0.20;;
4186;SDS011;2107;52.306;10.484;2023-04-03T02:48:08;0.20;;;0.20;;
4186;SDS011;2107;52.306;10.484;2023-04-03T02:50:35;0.20;;;0.20;;
4186;SDS011;2107;52.306;10.484;2023-04-03T02:53:02;0.20;;;0.20;;
4186;SDS011;2107;52.306;10.484;2023-04-03T02:55:29;0.20;;;0.20;;
4186;SDS011;2107;52.306;10.484;2023-04-03T02:57:58;0.20;;;0.20;;
4186;SDS011;2107;52.306;10.484;2023-04-03T03:00:24;0.20;;;0.20;;
4186;SDS011;2107;52.306;10.484;2023-04-03T03:02:51;0.20;;;0.20;;
4186;SDS011;2107;52.306;10.484;2023-04-03T03:05:18;0.20;;;0.20;;
4186;SDS011;2107;52.306;10.484;2023-04-03T03:07:45;0.20;;;0.20;;
4186;SDS011;2107;52.306;10.484;2023-04-03T03:10:12;0.20;;;0.20;;
4186;SDS011;2107;52.306;10.484;2023-04-03T03:12:38;0.20;;;0.20;;
4186;SDS011;2107;52.306;10.484;2023-04-03T03:15:07;0.20;;;0.20;;
4186;SDS011;2107;52.306;10.484;2023-04-03T03:17:35;0.20;;;0.20;;
4186;SDS011;2107;52.306;10.484;2023-04-03T03:20:02;0.20;;;0.20;;
4186;SDS011;2107;52.306;10.484;2023-04-03T03:22:29;0.20;;;0.20;;
4186;SDS011;2107;52.306;10.484;2023-04-03T03:24:56;0.20;;;0.20;;
4186;SDS011;2107;52.306;10.484;2023-04-03T03:27:23;0.20;;;0.20;;
4186;SDS011;2107;52.306;10.484;2023-04-03T03:29:50;0.20;;;0.20;;
4186;SDS011;2107;52.306;10.484;2023-04-03T03:32:18;0.20;;;0.20;;
4186;SDS011;2107;52.306;10.484;2023-04-03T03:34:45;0.20;;;0.20;;
4186;SDS011;2107;52.306;10.484;2023-04-03T03:37:12;0.20;;;0.20;;
4186;SDS011;2107;52.306;10.484;2023-04-03T03:39:39;0.20;;;0.20;;
4186;SDS011;2107;52.306;10.484;2023-04-03T03:42:05;0.20;;;0.20;;
4186;SDS011;2107;52.306;10.484;2023-04-03T03:44:32;0.20;;;0.20;;
4186;SDS011;2107;52.306;10.484;2023-04-03T03:46:59;0.20;;;0.20;;
4186;SDS011;2107;52.306;10.484;2023-04-03T03:49:27;0.20;;;0.20;;
4186;SDS011;2107;52.306;10.484;2023-04-03T03:51:54;0.20;;;0.20;;
4186;SDS011;2107;52.306;10.484;2023-04-03T03:54:21;0.20;;;0.20;;
4186;SDS011;2107;52.306;10.484;2023-04-03T03:56:48;0.10;;;0.10;;
4186;SDS011;2107;52.306;10.484;2023-04-03T03:59:15;0.20;;;0.20;;
4186;SDS011;2107;52.306;10.484;2023-04-03T04:01:42;0.20;;;0.20;;
4186;SDS011;2107;52.306;10.484;2023-04-03T04:04:09;0.13;;;0.13;;
4186;SDS011;2107;52.306;10.484;2023-04-03T04:06:37;0.20;;;0.20;;
4186;SDS011;2107;52.306;10.484;2023-04-03T04:09:04;0.10;;;0.10;;
4186;SDS011;2107;52.306;10.484;2023-04-03T04:11:31;0.20;;;0.20;;
4186;SDS011;2107;52.306;10.484;2023-04-03T04:13:58;0.20;;;0.20;;
4186;SDS011;2107;52.306;10.484;2023-04-03T04:16:25;0.20;;;0.20;;
4186;SDS011;2107;52.306;10.484;2023-04-03T04:18:52;0.20;;;0.20;;
4186;SDS011;2107;52.306;10.484;2023-04-03T04:21:18;0.17;;;0.17;;
4186;SDS011;2107;52.306;10.484;2023-04-03T04:23:47;0.20;;;0.20;;
4186;SDS011;2107;52.306;10.484;2023-04-03T04:26:13;0.10;;;0.10;;
4186;SDS011;2107;52.306;10.484;2023-04-03T04:28:40;0.10;;;0.10;;
4186;SDS011;2107;52.306;10.484;2023-04-03T04:31:07;0.10;;;0.10;;
4186;SDS011;2107;52.306;10.484;2023-04-03T04:33:34;0.10;;;0.10;;
4186;SDS011;2107;52.306;10.484;2023-04-03T04:36:01;0.13;;;0.13;;
4186;SDS011;2107;52.306;10.484;2023-04-03T04:38:28;0.20;;;0.20;;
4186;SDS011;2107;52.306;10.484;2023-04-03T04:40:56;0.10;;;0.10;;
4186;SDS011;2107;52.306;10.484;2023-04-03T04:43:23;0.10;;;0.10;;
4186;SDS011;2107;52.306;10.484;2023-04-03T04:45:59;0.10;;;0.10;;
4186;SDS011;2107;52.306;10.484;2023-04-03T04:48:27;0.10;;;0.10;;
4186;SDS011;2107;52.306;10.484;2023-04-03T04:50:54;0.20;;;0.20;;
4186;SDS011;2107;52.306;10.484;2023-04-03T04:53:21;0.20;;;0.20;;
4186;SDS011;2107;52.306;10.484;2023-04-03T04:55:48;0.10;;;0.10;;
4186;SDS011;2107;52.306;10.484;2023-04-03T04:58:16;0.10;;;0.10;;
4186;SDS011;2107;52.306;10.484;2023-04-03T05:00:43;0.10;;;0.10;;
4186;SDS011;2107;52.306;10.484;2023-04-03T05:03:10;0.10;;;0.10;;
4186;SDS011;2107;52.306;10.484;2023-04-03T05:05:37;0.20;;;0.20;;
4186;SDS011;2107;52.306;10.484;2023-04-03T05:08:04;0.20;;;0.20;;
4186;SDS011;2107;52.306;10.484;2023-04-03T05:10:33;0.20;;;0.20;;
4186;SDS011;2107;52.306;10.484;2023-04-03T05:13:00;0.30;;;0.30;;
4186;SDS011;2107;52.306;10.484;2023-04-03T05:15:29;0.40;;;0.40;;
4186;SDS011;2107;52.306;10.484;2023-04-03T05:17:55;0.37;;;0.37;;
4186;SDS011;2107;52.306;10.484;2023-04-03T05:20:22;0.57;;;0.57;;
4186;SDS011;2107;52.306;10.484;2023-04-03T05:22:49;0.90;;;0.90;;
4186;SDS011;2107;52.306;10.484;2023-04-03T05:25:16;0.83;;;0.83;;
4186;SDS011;2107;52.306;10.484;2023-04-03T05:27:43;0.80;;;0.80;;
4186;SDS011;2107;52.306;10.484;2023-04-03T05:30:10;0.90;;;0.90;;
4186;SDS011;2107;52.306;10.484;2023-04-03T05:32:39;0.90;;;0.90;;
4186;SDS011;2107;52.306;10.484;2023-04-03T05:35:06;0.97;;;0.97;;
4186;SDS011;2107;52.306;10.484;2023-04-03T05:37:34;0.80;;;0.80;;
4186;SDS011;2107;52.306;10.484;2023-04-03T05:40:01;1.10;;;1.10;;
4186;SDS011;2107;52.306;10.484;2023-04-03T05:42:29;1.00;;;1.00;;
4186;SDS011;2107;52.306;10.484;2023-04-03T05:44:55;1.20;;;1.20;;
4186;SDS011;2107;52.306;10.484;2023-04-03T05:47:22;1.40;;;1.40;;
4186;SDS011;2107;52.306;10.484;2023-04-03T05:49:50;1.27;;;1.27;;
4186;SDS011;2107;52.306;10.484;2023-04-03T05:52:18;1.13;;;1.13;;
4186;SDS011;2107;52.306;10.484;2023-04-03T05:54:48;0.90;;;0.90;;
4186;SDS011;2107;52.306;10.484;2023-04-03T05:57:15;0.90;;;0.90;;
4186;SDS011;2107;52.306;10.484;2023-04-03T05:59:43;0.90;;;0.90;;
4186;SDS011;2107;52.306;10.484;2023-04-03T06:02:10;1.00;;;1.00;;
4186;SDS011;2107;52.306;10.484;2023-04-03T06:04:38;0.90;;;0.90;;
4186;SDS011;2107;52.306;10.484;2023-04-03T06:07:07;0.80;;;0.80;;
4186;SDS011;2107;52.306;10.484;2023-04-03T06:09:37;0.70;;;0.70;;
4186;SDS011;2107;52.306;10.484;2023-04-03T06:12:04;0.60;;;0.60;;
4186;SDS011;2107;52.306;10.484;2023-04-03T06:14:31;0.70;;;0.70;;
4186;SDS011;2107;52.306;10.484;2023-04-03T06:16:58;0.70;;;0.70;;
4186;SDS011;2107;52.306;10.484;2023-04-03T06:19:25;0.70;;;0.70;;
4186;SDS011;2107;52.306;10.484;2023-04-03T06:21:52;0.70;;;0.70;;
4186;SDS011;2107;52.306;10.484;2023-04-03T06:24:20;0.70;;;0.70;;
4186;SDS011;2107;52.306;10.484;2023-04-03T06:26:49;0.63;;;0.63;;
4186;SDS011;2107;52.306;10.484;2023-04-03T06:29:17;0.70;;;0.70;;
4186;SDS011;2107;52.306;10.484;2023-04-03T06:31:44;0.70;;;0.70;;
4186;SDS011;2107;52.306;10.484;2023-04-03T06:34:11;0.60;;;0.60;;
4186;SDS011;2107;52.306;10.484;2023-04-03T06:36:39;0.70;;;0.70;;
4186;SDS011;2107;52.306;10.484;2023-04-03T06:39:06;0.73;;;0.73;;
4186;SDS011;2107;52.306;10.484;2023-04-03T06:41:34;0.80;;;0.80;;
4186;SDS011;2107;52.306;10.484;2023-04-03T06:44:01;0.60;;;0.60;;
4186;SDS011;2107;52.306;10.484;2023-04-03T06:46:28;0.60;;;0.60;;
4186;SDS011;2107;52.306;10.484;2023-04-03T06:48:55;0.60;;;0.60;;
4186;SDS011;2107;52.306;10.484;2023-04-03T06:51:23;0.70;;;0.70;;
4186;SDS011;2107;52.306;10.484;2023-04-03T06:53:52;0.70;;;0.70;;
4186;SDS011;2107;52.306;10.484;2023-04-03T06:56:20;0.70;;;0.70;;
4186;SDS011;2107;52.306;10.484;2023-04-03T06:58:49;0.90;;;0.90;;
4186;SDS011;2107;52.306;10.484;2023-04-03T07:01:17;0.90;;;0.90;;
4186;SDS011;2107;52.306;10.484;2023-04-03T07:03:45;1.10;;;1.10;;
4186;SDS011;2107;52.306;10.484;2023-04-03T07:06:13;1.00;;;1.00;;
4186;SDS011;2107;52.306;10.484;2023-04-03T07:08:41;1.10;;;1.10;;
4186;SDS011;2107;52.306;10.484;2023-04-03T07:11:09;1.00;;;1.00;;
4186;SDS011;2107;52.306;10.484;2023-04-03T07:13:36;0.90;;;0.90;;
4186;SDS011;2107;52.306;10.484;2023-04-03T07:16:05;0.90;;;0.90;;
4186;SDS011;2107;52.306;10.484;2023-04-03T07:18:33;1.00;;;1.00;;
4186;SDS011;2107;52.306;10.484;2023-04-03T07:21:00;0.90;;;0.90;;
4186;SDS011;2107;52.306;10.484;2023-04-03T07:23:27;0.80;;;0.80;;
4186;SDS011;2107;52.306;10.484;2023-04-03T07:25:54;0.70;;;0.70;;
4186;SDS011;2107;52.306;10.484;2023-04-03T07:28:22;0.70;;;0.70;;
4186;SDS011;2107;52.306;10.484;2023-04-03T07:30:50;0.90;;;0.90;;
4186;SDS011;2107;52.306;10.484;2023-04-03T07:33:20;0.80;;;0.80;;
4186;SDS011;2107;52.306;10.484;2023-04-03T07:35:48;0.90;;;0.90;;
4186;SDS011;2107;52.306;10.484;2023-04-03T07:38:15;0.80;;;0.80;;
4186;SDS011;2107;52.306;10.484;2023-04-03T07:40:45;0.70;;;0.70;;
4186;SDS011;2107;52.306;10.484;2023-04-03T07:43:13;0.60;;;0.60;;
4186;SDS011;2107;52.306;10.484;2023-04-03T07:45:40;0.70;;;0.70;;
4186;SDS011;2107;52.306;10.484;2023-04-03T07:48:08;0.90;;;0.90;;
4186;SDS011;2107;52.306;10.484;2023-04-03T07:50:36;1.00;;;1.00;;
4186;SDS011;2107;52.306;10.484;2023-04-03T07:53:05;0.70;;;0.70;;
4186;SDS011;2107;52.306;10.484;2023-04-03T07:55:32;0.63;;;0.63;;
4186;SDS011;2107;52.306;10.484;2023-04-03T07:58:02;0.70;;;0.70;;
4186;SDS011;2107;52.306;10.484;2023-04-03T08:00:29;0.80;;;0.80;;
4186;SDS011;2107;52.306;10.484;2023-04-03T08:02:56;0.83;;;0.83;;
4186;SDS011;2107;52.306;10.484;2023-04-03T08:05:23;0.90;;;0.90;;
4186;SDS011;2107;52.306;10.484;2023-04-03T08:07:51;0.73;;;0.73;;
4186;SDS011;2107;52.306;10.484;2023-04-03T08:10:18;0.80;;;0.80;;
4186;SDS011;2107;52.306;10.484;2023-04-03T08:12:45;0.90;;;0.90;;
4186;SDS011;2107;52.306;10.484;2023-04-03T08:15:12;1.10;;;1.10;;
4186;SDS011;2107;52.306;10.484;2023-04-03T08:17:39;0.90;;;0.90;;
4186;SDS011;2107;52.306;10.484;2023-04-03T08:20:07;0.70;;;0.70;;
4186;SDS011;2107;52.306;10.484;2023-04-03T08:22:35;0.80;;;0.80;;
4186;SDS011;2107;52.306;10.484;2023-04-03T08:25:04;0.90;;;0.90;;
4186;SDS011;2107;52.306;10.484;2023-04-03T08:27:31;0.60;;;0.60;;
4186;SDS011;2107;52.306;10.484;2023-04-03T08:29:58;0.70;;;0.70;;
4186;SDS011;2107;52.306;10.484;2023-04-03T08:32:25;0.80;;;0.80;;
4186;SDS011;2107;52.306;10.484;2023-04-03T08:34:52;0.77;;;0.77;;
4186;SDS011;2107;52.306;10.484;2023-04-03T08:37:19;0.70;;;0.70;;
4186;SDS011;2107;52.306;10.484;2023-04-03T08:39:46;0.70;;;0.70;;
4186;SDS011;2107;52.306;10.484;2023-04-03T08:42:16;0.60;;;0.60;;
4186;SDS011;2107;52.306;10.484;2023-04-03T08:44:57;0.80;;;0.80;;
4186;SDS011;2107;52.306;10.484;2023-04-03T08:47:28;0.80;;;0.80;;
4186;SDS011;2107;52.306;10.484;2023-04-03T08:50:04;0.70;;;0.70;;
4186;SDS011;2107;52.306;10.484;2023-04-03T08:52:34;0.90;;;0.90;;
4186;SDS011;2107;52.306;10.484;2023-04-03T08:55:06;0.80;;;0.80;;
4186;SDS011;2107;52.306;10.484;2023-04-03T08:57:43;0.93;;;0.93;;
4186;SDS011;2107;52.306;10.484;2023-04-03T09:00:15;0.90;;;0.90;;
4186;SDS011;2107;52.306;10.484;2023-04-03T09:02:45;1.00;;;1.00;;
4186;SDS011;2107;52.306;10.484;2023-04-03T09:05:14;1.00;;;1.00;;
4186;SDS011;2107;52.306;10.484;2023-04-03T09:07:43;1.30;;;1.30;;
4186;SDS011;2107;52.306;10.484;2023-04-03T09:10:14;0.93;;;0.93;;
4186;SDS011;2107;52.306;10.484;2023-04-03T09:12:43;0.97;;;0.97;;
4186;SDS011;2107;52.306;10.484;2023-04-03T09:15:17;0.97;;;0.97;;
4186;SDS011;2107;52.306;10.484;2023-04-03T09:17:48;1.00;;;1.00;;
4186;SDS011;2107;52.306;10.484;2023-04-03T09:20:31;0.90;;;0.90;;
4186;SDS011;2107;52.306;10.484;2023-04-03T09:23:11;0.90;;;0.90;;
4186;SDS011;2107;52.306;10.484;2023-04-03T09:25:42;1.10;;;1.10;;
4186;SDS011;2107;52.306;10.484;2023-04-03T09:28:12;1.00;;;1.00;;
4186;SDS011;2107;52.306;10.484;2023-04-03T09:30:39;1.00;;;1.00;;
4186;SDS011;2107;52.306;10.484;2023-04-03T09:33:06;0.70;;;0.70;;
4186;SDS011;2107;52.306;10.484;2023-04-03T09:35:34;0.80;;;0.80;;
4186;SDS011;2107;52.306;10.484;2023-04-03T09:38:14;0.93;;;0.93;;
4186;SDS011;2107;52.306;10.484;2023-04-03T09:40:43;0.90;;;0.90;;
4186;SDS011;2107;52.306;10.484;2023-04-03T09:43:23;0.90;;;0.90;;
4186;SDS011;2107;52.306;10.484;2023-04-03T09:45:55;0.80;;;0.80;;
4186;SDS011;2107;52.306;10.484;2023-04-03T09:48:45;0.80;;;0.80;;
4186;SDS011;2107;52.306;10.484;2023-04-03T09:51:17;0.80;;;0.80;;
4186;SDS011;2107;52.306;10.484;2023-04-03T09:53:44;0.90;;;0.90;;
4186;SDS011;2107;52.306;10.484;2023-04-03T09:56:19;0.80;;;0.80;;
4186;SDS011;2107;52.306;10.484;2023-04-03T09:58:49;0.60;;;0.60;;
4186;SDS011;2107;52.306;10.484;2023-04-03T10:01:21;0.70;;;0.70;;
4186;SDS011;2107;52.306;10.484;2023-04-03T10:04:02;0.80;;;0.80;;
4186;SDS011;2107;52.306;10.484;2023-04-03T10:06:35;0.90;;;0.90;;
4186;SDS011;2107;52.306;10.484;2023-04-03T10:09:06;0.60;;;0.60;;
4186;SDS011;2107;52.306;10.484;2023-04-03T10:11:47;0.80;;;0.80;;
4186;SDS011;2107;52.306;10.484;2023-04-03T10:14:26;0.70;;;0.70;;
4186;SDS011;2107;52.306;10.484;2023-04-03T10:16:54;0.50;;;0.50;;
4186;SDS011;2107;52.306;10.484;2023-04-03T10:19:32;0.80;;;0.80;;
4186;SDS011;2107;52.306;10.484;2023-04-03T10:22:09;0.60;;;0.60;;
4186;SDS011;2107;52.306;10.484;2023-04-03T10:24:47;0.60;;;0.60;;
4186;SDS011;2107;52.306;10.484;2023-04-03T10:27:21;0.80;;;0.80;;
4186;SDS011;2107;52.306;10.484;2023-04-03T10:29:58;0.83;;;0.83;;
4186;SDS011;2107;52.306;10.484;2023-04-03T10:32:42;0.90;;;0.90;;
4186;SDS011;2107;52.306;10.484;2023-04-03T10:35:16;0.90;;;0.90;;
4186;SDS011;2107;52.306;10.484;2023-04-03T10:37:54;1.10;;;1.10;;
4186;SDS011;2107;52.306;10.484;2023-04-03T10:40:29;0.90;;;0.90;;
4186;SDS011;2107;52.306;10.484;2023-04-03T10:43:02;0.90;;;0.90;;
4186;SDS011;2107;52.306;10.484;2023-04-03T10:45:44;0.80;;;0.80;;
4186;SDS011;2107;52.306;10.484;2023-04-03T10:48:24;0.70;;;0.70;;
4186;SDS011;2107;52.306;10.484;2023-04-03T10:51:01;0.63;;;0.63;;
4186;SDS011;2107;52.306;10.484;2023-04-03T10:53:41;0.60;;;0.60;;
4186;SDS011;2107;52.306;10.484;2023-04-03T10:56:15;0.90;;;0.90;;
4186;SDS011;2107;52.306;10.484;2023-04-03T10:58:48;0.80;;;0.80;;
4186;SDS011;2107;52.306;10.484;2023-04-03T11:01:23;0.90;;;0.90;;
4186;SDS011;2107;52.306;10.484;2023-04-03T11:03:54;0.70;;;0.70;;
4186;SDS011;2107;52.306;10.484;2023-04-03T11:06:24;0.70;;;0.70;;
4186;SDS011;2107;52.306;10.484;2023-04-03T11:08:56;0.70;;;0.70;;
4186;SDS011;2107;52.306;10.484;2023-04-03T11:11:29;0.80;;;0.80;;
4186;SDS011;2107;52.306;10.484;2023-04-03T11:14:01;0.40;;;0.40;;
4186;SDS011;2107;52.306;10.484;2023-04-03T11:16:33;0.60;;;0.60;;
4186;SDS011;2107;52.306;10.484;2023-04-03T11:19:08;0.80;;;0.80;;
4186;SDS011;2107;52.306;10.484;2023-04-03T11:21:41;0.90;;;0.90;;
4186;SDS011;2107;52.306;10.484;2023-04-03T11:24:13;0.80;;;0.80;;
4186;SDS011;2107;52.306;10.484;2023-04-03T11:26:46;1.20;;;1.20;;
4186;SDS011;2107;52.306;10.484;2023-04-03T11:29:18;1.20;;;1.20;;
4186;SDS011;2107;52.306;10.484;2023-04-03T11:31:58;0.80;;;0.80;;
4186;SDS011;2107;52.306;10.484;2023-04-03T11:34:36;0.90;;;0.90;;
4186;SDS011;2107;52.306;10.484;2023-04-03T11:37:11;1.00;;;1.00;;
4186;SDS011;2107;52.306;10.484;2023-04-03T11:39:46;1.03;;;1.03;;
4186;SDS011;2107;52.306;10.484;2023-04-03T11:42:23;0.80;;;0.80;;
4186;SDS011;2107;52.306;10.484;2023-04-03T11:48:00;0.77;;;0.77;;
4186;SDS011;2107;52.306;10.484;2023-04-03T11:50:39;1.30;;;1.30;;
4186;SDS011;2107;52.306;10.484;2023-04-03T11:56:03;1.10;;;1.10;;
4186;SDS011;2107;52.306;10.484;2023-04-03T11:58:52;1.10;;;1.10;;
4186;SDS011;2107;52.306;10.484;2023-04-03T12:01:44;1.10;;;1.10;;
4186;SDS011;2107;52.306;10.484;2023-04-03T12:04:14;1.20;;;1.20;;
4186;SDS011;2107;52.306;10.484;2023-04-03T12:12:28;1.00;;;1.00;;
4186;SDS011;2107;52.306;10.484;2023-04-03T12:24:37;0.97;;;0.97;;
4186;SDS011;2107;52.306;10.484;2023-04-03T12:27:09;1.00;;;1.00;;
4186;SDS011;2107;52.306;10.484;2023-04-03T12:29:46;1.00;;;1.00;;
4186;SDS011;2107;52.306;10.484;2023-04-03T12:32:19;0.80;;;0.80;;
4186;SDS011;2107;52.306;10.484;2023-04-03T12:35:03;0.70;;;0.70;;
4186;SDS011;2107;52.306;10.484;2023-04-03T12:37:43;1.00;;;1.00;;
4186;SDS011;2107;52.306;10.484;2023-04-03T12:40:24;1.00;;;1.00;;
4186;SDS011;2107;52.306;10.484;2023-04-03T12:43:01;0.90;;;0.90;;
4186;SDS011;2107;52.306;10.484;2023-04-03T12:45:45;1.10;;;1.10;;
4186;SDS011;2107;52.306;10.484;2023-04-03T12:48:17;1.17;;;1.17;;
4186;SDS011;2107;52.306;10.484;2023-04-03T12:50:51;1.10;;;1.10;;
4186;SDS011;2107;52.306;10.484;2023-04-03T12:53:21;1.10;;;1.10;;
4186;SDS011;2107;52.306;10.484;2023-04-03T12:55:53;1.10;;;1.10;;
4186;SDS011;2107;52.306;10.484;2023-04-03T12:58:21;1.30;;;1.30;;
4186;SDS011;2107;52.306;10.484;2023-04-03T13:01:00;1.17;;;1.17;;
4186;SDS011;2107;52.306;10.484;2023-04-03T13:03:29;1.00;;;1.00;;
4186;SDS011;2107;52.306;10.484;2023-04-03T13:05:57;1.10;;;1.10;;
4186;SDS011;2107;52.306;10.484;2023-04-03T13:08:28;1.00;;;1.00;;
4186;SDS011;2107;52.306;10.484;2023-04-03T13:10:56;0.90;;;0.90;;
4186;SDS011;2107;52.306;10.484;2023-04-03T13:13:25;1.10;;;1.10;;
4186;SDS011;2107;52.306;10.484;2023-04-03T13:15:52;1.20;;;1.20;;
4186;SDS011;2107;52.306;10.484;2023-04-03T13:18:30;1.20;;;1.20;;
4186;SDS011;2107;52.306;10.484;2023-04-03T13:20:59;1.40;;;1.40;;
4186;SDS011;2107;52.306;10.484;2023-04-03T13:23:30;1.20;;;1.20;;
4186;SDS011;2107;52.306;10.484;2023-04-03T13:26:02;1.60;;;1.60;;
4186;SDS011;2107;52.306;10.484;2023-04-03T13:28:31;1.47;;;1.47;;
4186;SDS011;2107;52.306;10.484;2023-04-03T13:31:01;1.37;;;1.37;;
4186;SDS011;2107;52.306;10.484;2023-04-03T13:33:32;1.30;;;1.30;;
4186;SDS011;2107;52.306;10.484;2023-04-03T13:36:03;1.30;;;1.30;;
4186;SDS011;2107;52.306;10.484;2023-04-03T13:38:34;1.20;;;1.20;;
4186;SDS011;2107;52.306;10.484;2023-04-03T13:41:02;0.90;;;0.90;;
4186;SDS011;2107;52.306;10.484;2023-04-03T13:43:32;1.20;;;1.20;;
4186;SDS011;2107;52.306;10.484;2023-04-03T13:46:02;1.33;;;1.33;;
4186;SDS011;2107;52.306;10.484;2023-04-03T13:48:35;1.00;;;1.00;;
4186;SDS011;2107;52.306;10.484;2023-04-03T13:51:04;1.00;;;1.00;;
4186;SDS011;2107;52.306;10.484;2023-04-03T13:53:44;1.20;;;1.20;;
4186;SDS011;2107;52.306;10.484;2023-04-03T13:56:16;1.10;;;1.10;;
4186;SDS011;2107;52.306;10.484;2023-04-03T13:58:54;1.20;;;1.20;;
4186;SDS011;2107;52.306;10.484;2023-04-03T14:01:32;1.33;;;1.33;;
4186;SDS011;2107;52.306;10.484;2023-04-03T14:04:09;1.20;;;1.20;;
4186;SDS011;2107;52.306;10.484;2023-04-03T14:06:39;1.20;;;1.20;;
4186;SDS011;2107;52.306;10.484;2023-04-03T14:09:07;1.00;;;1.00;;
4186;SDS011;2107;52.306;10.484;2023-04-03T14:11:34;1.20;;;1.20;;
4186;SDS011;2107;52.306;10.484;2023-04-03T14:14:02;1.00;;;1.00;;
4186;SDS011;2107;52.306;10.484;2023-04-03T14:16:33;1.00;;;1.00;;
4186;SDS011;2107;52.306;10.484;2023-04-03T14:19:04;1.10;;;1.10;;
4186;SDS011;2107;52.306;10.484;2023-04-03T14:21:31;1.00;;;1.00;;
4186;SDS011;2107;52.306;10.484;2023-04-03T14:23:58;1.20;;;1.20;;
4186;SDS011;2107;52.306;10.484;2023-04-03T14:26:28;1.47;;;1.47;;
4186;SDS011;2107;52.306;10.484;2023-04-03T14:28:55;1.20;;;1.20;;
4186;SDS011;2107;52.306;10.484;2023-04-03T14:31:22;1.40;;;1.40;;
4186;SDS011;2107;52.306;10.484;2023-04-03T14:33:50;1.17;;;1.17;;
4186;SDS011;2107;52.306;10.484;2023-04-03T14:36:18;1.30;;;1.30;;
4186;SDS011;2107;52.306;10.484;2023-04-03T14:38:47;1.10;;;1.10;;
4186;SDS011;2107;52.306;10.484;2023-04-03T14:41:16;1.20;;;1.20;;
4186;SDS011;2107;52.306;10.484;2023-04-03T14:43:46;1.30;;;1.30;;
4186;SDS011;2107;52.306;10.484;2023-04-03T14:46:14;1.20;;;1.20;;
4186;SDS011;2107;52.306;10.484;2023-04-03T14:48:44;1.57;;;1.57;;
4186;SDS011;2107;52.306;10.484;2023-04-03T14:51:12;1.20;;;1.20;;
4186;SDS011;2107;52.306;10.484;2023-04-03T14:53:40;1.33;;;1.33;;
4186;SDS011;2107;52.306;10.484;2023-04-03T14:56:10;1.40;;;1.40;;
4186;SDS011;2107;52.306;10.484;2023-04-03T14:58:39;1.10;;;1.10;;
4186;SDS011;2107;52.306;10.484;2023-04-03T15:01:08;1.23;;;1.23;;
4186;SDS011;2107;52.306;10.484;2023-04-03T15:03:36;1.00;;;1.00;;
4186;SDS011;2107;52.306;10.484;2023-04-03T15:06:03;1.10;;;1.10;;
4186;SDS011;2107;52.306;10.484;2023-04-03T15:08:31;1.20;;;1.20;;
4186;SDS011;2107;52.306;10.484;2023-04-03T15:10:58;1.30;;;1.30;;
4186;SDS011;2107;52.306;10.484;2023-04-03T15:13:26;1.30;;;1.30;;
4186;SDS011;2107;52.306;10.484;2023-04-03T15:15:53;1.30;;;1.30;;
4186;SDS011;2107;52.306;10.484;2023-04-03T15:18:24;1.30;;;1.30;;
4186;SDS011;2107;52.306;10.484;2023-04-03T15:20:53;1.10;;;1.10;;
4186;SDS011;2107;52.306;10.484;2023-04-03T15:23:22;1.30;;;1.30;;
4186;SDS011;2107;52.306;10.484;2023-04-03T15:25:53;1.10;;;1.10;;
4186;SDS011;2107;52.306;10.484;2023-04-03T15:28:22;1.30;;;1.30;;
4186;SDS011;2107;52.306;10.484;2023-04-03T15:30:51;1.60;;;1.60;;
4186;SDS011;2107;52.306;10.484;2023-04-03T15:33:18;1.70;;;1.70;;
4186;SDS011;2107;52.306;10.484;2023-04-03T15:35:47;1.60;;;1.60;;
4186;SDS011;2107;52.306;10.484;2023-04-03T15:38:14;1.70;;;1.70;;